Bay Celebrations — WBDO — position and weather

sailwx.info

Track history (hours):
 
Tides and Currents Weather Stations Pressure Air Temp Water Temp Dewpoint Dewpoint Depression Visibility Wind Speed Wind Dir Waves Ship Positions

Bay Celebrations

Owner: Kuma Products Inc., Grass Valley, CA. More information available from US FCC via Universal Licensing System and Coast Guard Vessel Documentation Center.

Last reported at 2018-Jun-18 01:12 UTC. Time now 2018-Jun-19 19:54 UTC.
Position N 37°47' W 122°15'.

Length 20 m; draft 2 m.

Type: Passenger vessel. MMSI: 366878250.

Date/timePositionNaut miles runAvg speedWind from/ knotsBaromVisibWave heightAir tempDewpointWater temp
2018-Jun-18 01:12N 37°47' W 122°15'1 2.8
2018-Jun-18 01:00N 37°47' W 122°15'1 3.0
2018-Jun-18 00:30N 37°48' W 122°17'2 3.7
2018-Jun-18 00:00N 37°48' W 122°19'2 4.3
2018-Jun-17 23:30N 37°48' W 122°22'2 4.4
2018-Jun-17 23:00N 37°48' W 122°19'2 3.5
2018-Jun-17 22:30N 37°48' W 122°17'0 0.1
2018-Jun-17 22:00N 37°48' W 122°17'2 0.1
2018-Jun-17 05:48N 37°47' W 122°15'1 3.2
2018-Jun-17 05:30N 37°47' W 122°16'1 2.1
2018-Jun-17 05:00N 37°48' W 122°17'1 2.8
2018-Jun-17 04:31N 37°47' W 122°15'2 3.4
2018-Jun-17 04:00N 37°48' W 122°17'2 4.4
2018-Jun-17 03:30N 37°48' W 122°20'2 3.6
2018-Jun-17 03:00N 37°48' W 122°18'1 1.7
2018-Jun-17 02:29N 37°48' W 122°17'0 0.1
2018-Jun-17 02:00N 37°48' W 122°17'2 4.0
2018-Jun-17 01:30N 37°47' W 122°15'2 3.9
2018-Jun-17 01:00N 37°48' W 122°17'0 0.0
2018-Jun-17 00:30N 37°48' W 122°17'0 0.0
2018-Jun-17 00:00N 37°48' W 122°17'0 0.2
2018-Jun-16 23:29N 37°48' W 122°17'1 2.8
2018-Jun-16 23:01N 37°47' W 122°15'0 0.0
2018-Jun-16 05:17N 37°47' W 122°15'1 3.3
2018-Jun-16 05:01N 37°47' W 122°16'1 2.2
2018-Jun-16 04:30N 37°48' W 122°17'2 4.4
2018-Jun-16 04:00N 37°48' W 122°20'2 4.5
2018-Jun-16 03:30N 37°48' W 122°17'0 0.0
2018-Jun-16 03:00N 37°48' W 122°17'0 0.0
2018-Jun-16 02:30N 37°48' W 122°17'0 0.0
2018-Jun-16 01:59N 37°48' W 122°17'0 0.0
2018-Jun-16 01:30N 37°48' W 122°17'0 0.0
2018-Jun-16 01:00N 37°48' W 122°17'2 3.2
2018-Jun-16 00:30N 37°47' W 122°15'0 0.0
2018-Jun-13 22:26N 37°47' W 122°15'2 4.6
2018-Jun-13 22:00N 37°48' W 122°17'2 4.6
2018-Jun-13 21:30N 37°48' W 122°20'2 4.6
2018-Jun-13 21:01N 37°47' W 122°22'2 3.7
2018-Jun-13 20:30N 37°49' W 122°24'1 1.6
2018-Jun-13 20:00N 37°49' W 122°25'2 3.6
2018-Jun-13 19:31N 37°48' W 122°23'1 2.7
2018-Jun-13 19:01N 37°47' W 122°22'3 5.6
2018-Jun-13 18:30N 37°48' W 122°19'2 3.8
2018-Jun-13 18:01N 37°48' W 122°17'1 2.8
2018-Jun-13 17:30N 37°47' W 122°15'  
2018-Jun-10 23:13N 37°47' W 122°15'1 5.4
2018-Jun-10 23:00N 37°47' W 122°16'1 0.1
2018-Jun-10 08:11N 37°48' W 122°17'0 0.5
2018-Jun-10 08:00N 37°48' W 122°17'0 0.0
2018-Jun-10 07:30N 37°48' W 122°17'0 0.9
2018-Jun-10 07:00N 37°48' W 122°17'2 3.7
2018-Jun-10 06:30N 37°48' W 122°19'2 4.2
2018-Jun-10 06:00N 37°47' W 122°22'3 5.3
2018-Jun-10 05:30N 37°48' W 122°19'2 3.5
2018-Jun-10 05:00N 37°48' W 122°17'0 0.0
2018-Jun-10 04:30N 37°48' W 122°17'0 0.0
2018-Jun-10 04:00N 37°48' W 122°17'0 0.0
2018-Jun-09 21:48N 37°48' W 122°17'1 3.8
2018-Jun-09 21:31N 37°47' W 122°15'1 0.1
2018-Jun-09 08:29N 37°47' W 122°15'2 4.1
2018-Jun-09 08:00N 37°48' W 122°17'0 0.5
2018-Jun-09 07:30N 37°48' W 122°17'3 5.1
2018-Jun-09 07:00N 37°48' W 122°20'3 5.2
2018-Jun-09 06:30N 37°47' W 122°23'0 0.4
2018-Jun-09 06:00N 37°47' W 122°23'1 2.4
2018-Jun-09 05:30N 37°48' W 122°22'3 5.4
2018-Jun-09 05:00N 37°48' W 122°19'2 3.3
2018-Jun-09 04:30N 37°48' W 122°17'0 0.0
2018-Jun-09 04:00N 37°48' W 122°17'1 1.8
2018-Jun-09 03:30N 37°48' W 122°18'1 2.6
2018-Jun-09 03:00N 37°48' W 122°19'2 3.3
2018-Jun-09 02:30N 37°47' W 122°17'0 0.3
2018-Jun-09 02:00N 37°48' W 122°17'1 1.0
2018-Jun-09 01:30N 37°48' W 122°17'0 0.0
2018-Jun-09 01:00N 37°48' W 122°17'0 0.0
2018-Jun-09 00:30N 37°48' W 122°17'0 0.0
2018-Jun-09 00:00N 37°48' W 122°17'0 0.3
2018-Jun-08 23:30N 37°48' W 122°17'2 3.7
2018-Jun-08 23:00N 37°47' W 122°15'  
Track history (hours):
 
Tides and Currents Weather Stations Pressure Air Temp Water Temp Dewpoint Dewpoint Depression Visibility Wind Speed Wind Dir Waves Ship Positions

Bay Celebrations

Owner: Kuma Products Inc., Grass Valley, CA. More information available from US FCC via Universal Licensing System and Coast Guard Vessel Documentation Center.

Last reported at 2018-Jun-18 01:12 UTC. Time now 2018-Jun-19 19:54 UTC.
Position N 37°47' W 122°15'.

Length 20 m; draft 2 m.

Type: Passenger vessel. MMSI: 366878250.

Date/timePositionNaut miles runAvg speedWind from/ knotsBaromVisibWave heightAir tempDewpointWater temp
2018-Jun-18 01:12N 37°47' W 122°15'1 2.8
2018-Jun-18 01:00N 37°47' W 122°15'1 3.0
2018-Jun-18 00:30N 37°48' W 122°17'2 3.7
2018-Jun-18 00:00N 37°48' W 122°19'2 4.3
2018-Jun-17 23:30N 37°48' W 122°22'2 4.4
2018-Jun-17 23:00N 37°48' W 122°19'2 3.5
2018-Jun-17 22:30N 37°48' W 122°17'0 0.1
2018-Jun-17 22:00N 37°48' W 122°17'2 0.1
2018-Jun-17 05:48N 37°47' W 122°15'1 3.2
2018-Jun-17 05:30N 37°47' W 122°16'1 2.1
2018-Jun-17 05:00N 37°48' W 122°17'1 2.8
2018-Jun-17 04:31N 37°47' W 122°15'2 3.4
2018-Jun-17 04:00N 37°48' W 122°17'2 4.4
2018-Jun-17 03:30N 37°48' W 122°20'2 3.6
2018-Jun-17 03:00N 37°48' W 122°18'1 1.7
2018-Jun-17 02:29N 37°48' W 122°17'0 0.1
2018-Jun-17 02:00N 37°48' W 122°17'2 4.0
2018-Jun-17 01:30N 37°47' W 122°15'2 3.9
2018-Jun-17 01:00N 37°48' W 122°17'0 0.0
2018-Jun-17 00:30N 37°48' W 122°17'0 0.0
2018-Jun-17 00:00N 37°48' W 122°17'0 0.2
2018-Jun-16 23:29N 37°48' W 122°17'1 2.8
2018-Jun-16 23:01N 37°47' W 122°15'0 0.0
2018-Jun-16 05:17N 37°47' W 122°15'1 3.3
2018-Jun-16 05:01N 37°47' W 122°16'1 2.2
2018-Jun-16 04:30N 37°48' W 122°17'2 4.4
2018-Jun-16 04:00N 37°48' W 122°20'2 4.5
2018-Jun-16 03:30N 37°48' W 122°17'0 0.0
2018-Jun-16 03:00N 37°48' W 122°17'0 0.0
2018-Jun-16 02:30N 37°48' W 122°17'0 0.0
2018-Jun-16 01:59N 37°48' W 122°17'0 0.0
2018-Jun-16 01:30N 37°48' W 122°17'0 0.0
2018-Jun-16 01:00N 37°48' W 122°17'2 3.2
2018-Jun-16 00:30N 37°47' W 122°15'0 0.0
2018-Jun-13 22:26N 37°47' W 122°15'2 4.6
2018-Jun-13 22:00N 37°48' W 122°17'2 4.6
2018-Jun-13 21:30N 37°48' W 122°20'2 4.6
2018-Jun-13 21:01N 37°47' W 122°22'2 3.7
2018-Jun-13 20:30N 37°49' W 122°24'1 1.6
2018-Jun-13 20:00N 37°49' W 122°25'2 3.6
2018-Jun-13 19:31N 37°48' W 122°23'1 2.7
2018-Jun-13 19:01N 37°47' W 122°22'3 5.6
2018-Jun-13 18:30N 37°48' W 122°19'2 3.8
2018-Jun-13 18:01N 37°48' W 122°17'1 2.8
2018-Jun-13 17:30N 37°47' W 122°15'  
2018-Jun-10 23:13N 37°47' W 122°15'1 5.4
2018-Jun-10 23:00N 37°47' W 122°16'1 0.1
2018-Jun-10 08:11N 37°48' W 122°17'0 0.5
2018-Jun-10 08:00N 37°48' W 122°17'0 0.0
2018-Jun-10 07:30N 37°48' W 122°17'0 0.9
2018-Jun-10 07:00N 37°48' W 122°17'2 3.7
2018-Jun-10 06:30N 37°48' W 122°19'2 4.2
2018-Jun-10 06:00N 37°47' W 122°22'3 5.3
2018-Jun-10 05:30N 37°48' W 122°19'2 3.5
2018-Jun-10 05:00N 37°48' W 122°17'0 0.0
2018-Jun-10 04:30N 37°48' W 122°17'0 0.0
2018-Jun-10 04:00N 37°48' W 122°17'0 0.0
2018-Jun-09 21:48N 37°48' W 122°17'1 3.8
2018-Jun-09 21:31N 37°47' W 122°15'1 0.1
2018-Jun-09 08:29N 37°47' W 122°15'2 4.1
2018-Jun-09 08:00N 37°48' W 122°17'0 0.5
2018-Jun-09 07:30N 37°48' W 122°17'3 5.1
2018-Jun-09 07:00N 37°48' W 122°20'3 5.2
2018-Jun-09 06:30N 37°47' W 122°23'0 0.4
2018-Jun-09 06:00N 37°47' W 122°23'1 2.4
2018-Jun-09 05:30N 37°48' W 122°22'3 5.4
2018-Jun-09 05:00N 37°48' W 122°19'2 3.3
2018-Jun-09 04:30N 37°48' W 122°17'0 0.0
2018-Jun-09 04:00N 37°48' W 122°17'1 1.8
2018-Jun-09 03:30N 37°48' W 122°18'1 2.6
2018-Jun-09 03:00N 37°48' W 122°19'2 3.3
2018-Jun-09 02:30N 37°47' W 122°17'0 0.3
2018-Jun-09 02:00N 37°48' W 122°17'1 1.0
2018-Jun-09 01:30N 37°48' W 122°17'0 0.0
2018-Jun-09 01:00N 37°48' W 122°17'0 0.0
2018-Jun-09 00:30N 37°48' W 122°17'0 0.0
2018-Jun-09 00:00N 37°48' W 122°17'0 0.3
2018-Jun-08 23:30N 37°48' W 122°17'2 3.7
2018-Jun-08 23:00N 37°47' W 122°15'  

Dump ship's entire track history